Time,TemperatureF,DewpointF,PressureIn,WindDirection,WindDirectionDegrees,WindSpeedMPH,WindSpeedGustMPH,Humidity,HourlyPrecipIn,Conditions,Clouds,dailyrainin,SoftwareType,DateUTC
2013-06-16 00:03:00,69.1,65.1,30.00,SW,214,0.0,0.0,87,0.00,,SKC,0.00,VWS V13.01,2013-06-16 05:03:00,
2013-06-16 00:08:00,69.0,65.0,29.99,SW,215,0.0,0.0,87,0.00,,SKC,0.00,VWS V13.01,2013-06-16 05:08:00,
2013-06-16 00:13:00,68.9,64.9,29.99,SW,214,0.0,0.0,87,0.00,,SKC,0.00,VWS V13.01,2013-06-16 05:13:00,
2013-06-16 00:18:00,68.8,64.8,29.99,SW,214,0.0,0.0,87,0.00,,SKC,0.00,VWS V13.01,2013-06-16 05:18:00,
2013-06-16 00:23:00,68.7,64.7,29.99,SW,214,0.0,0.0,87,0.00,,SKC,0.00,VWS V13.01,2013-06-16 05:23:00,
2013-06-16 00:28:00,68.6,64.6,29.98,SW,215,0.0,0.0,87,0.00,,SKC,0.00,VWS V13.01,2013-06-16 05:28:00,
2013-06-16 00:33:00,68.5,64.5,29.98,SW,214,0.0,0.0,87,0.00,,SKC,0.00,VWS V13.01,2013-06-16 05:33:00,
2013-06-16 00:38:00,68.3,64.3,29.99,SW,214,0.0,0.0,87,0.00,,SKC,0.00,VWS V13.01,2013-06-16 05:38:00,
2013-06-16 00:43:00,68.2,64.5,29.99,SW,214,0.0,0.0,88,0.00,,SKC,0.00,VWS V13.01,2013-06-16 05:43:00,
2013-06-16 00:48:00,68.1,64.4,29.98,SW,215,0.0,0.0,88,0.00,,SKC,0.00,VWS V13.01,2013-06-16 05:48:00,
2013-06-16 00:53:00,68.0,64.3,29.99,SW,215,0.0,0.0,88,0.00,,SKC,0.00,VWS V13.01,2013-06-16 05:53:00,
2013-06-16 00:58:00,68.0,64.6,29.99,SW,214,0.0,0.0,89,0.00,,SKC,0.00,VWS V13.01,2013-06-16 05:58:00,
2013-06-16 01:03:00,68.0,64.6,29.99,SW,215,0.0,0.0,89,0.00,,SKC,0.00,VWS V13.01,2013-06-16 06:03:00,
2013-06-16 01:08:00,67.9,64.5,29.98,SW,215,0.0,0.0,89,0.00,,SKC,0.00,VWS V13.01,2013-06-16 06:08:00,
2013-06-16 01:13:00,67.9,64.5,29.99,SW,214,0.0,0.0,89,0.00,,SKC,0.00,VWS V13.01,2013-06-16 06:13:00,
2013-06-16 01:18:00,68.0,65.0,29.99,SW,222,0.0,0.0,90,0.00,,SKC,0.00,VWS V13.01,2013-06-16 06:18:00,
2013-06-16 01:23:00,68.1,65.1,29.99,ESE,111,0.0,0.0,90,0.00,,SKC,0.00,VWS V13.01,2013-06-16 06:23:00,
2013-06-16 01:28:00,68.2,65.2,29.99,SE,139,0.0,0.0,90,0.00,,SKC,0.00,VWS V13.01,2013-06-16 06:28:00,
2013-06-16 01:33:00,68.3,65.6,29.99,SSW,198,0.0,0.0,91,0.00,,SKC,0.00,VWS V13.01,2013-06-16 06:33:00,
2013-06-16 01:38:00,68.3,65.6,29.99,SSW,197,0.0,0.0,91,0.00,,SKC,0.00,VWS V13.01,2013-06-16 06:38:00,
2013-06-16 01:43:00,68.4,66.0,30.00,SSW,202,0.0,0.0,92,0.00,,SKC,0.00,VWS V13.01,2013-06-16 06:43:00,
2013-06-16 01:49:00,68.4,65.7,30.00,SW,221,0.0,4.0,91,0.00,,SKC,0.00,VWS V13.01,2013-06-16 06:49:00,
2013-06-16 01:54:00,68.3,65.6,30.00,SW,221,0.0,0.0,91,0.00,,SKC,0.00,VWS V13.01,2013-06-16 06:54:00,
2013-06-16 01:59:00,68.4,65.7,29.99,SW,221,0.0,0.0,91,0.00,,SKC,0.00,VWS V13.01,2013-06-16 06:59:00,
2013-06-16 02:04:00,68.4,66.0,29.99,SW,221,0.0,0.0,92,0.00,,SKC,0.00,VWS V13.01,2013-06-16 07:04:00,
2013-06-16 02:09:00,68.4,66.0,29.99,SW,221,0.0,0.0,92,0.00,,SKC,0.00,VWS V13.01,2013-06-16 07:09:00,
2013-06-16 02:14:00,68.5,66.1,29.99,SW,233,0.0,0.0,92,0.00,,SKC,0.00,VWS V13.01,2013-06-16 07:14:00,
2013-06-16 02:19:00,68.5,66.1,29.99,SW,234,0.0,2.0,92,0.00,,SKC,0.00,VWS V13.01,2013-06-16 07:19:00,
2013-06-16 02:24:00,68.4,66.0,29.99,SW,235,0.0,2.0,92,0.00,,SKC,0.00,VWS V13.01,2013-06-16 07:24:00,
2013-06-16 02:29:00,68.4,66.0,29.99,WSW,241,0.0,3.0,92,0.00,,SKC,0.00,VWS V13.01,2013-06-16 07:29:00,
2013-06-16 02:34:00,68.3,65.9,29.99,SW,222,3.0,5.0,92,0.00,,SKC,0.00,VWS V13.01,2013-06-16 07:34:00,
2013-06-16 02:39:00,68.3,66.2,29.99,SW,230,0.0,0.0,93,0.00,,SKC,0.00,VWS V13.01,2013-06-16 07:39:00,
2013-06-16 02:44:00,68.2,66.1,29.99,WSW,240,0.0,0.0,93,0.00,,SKC,0.00,VWS V13.01,2013-06-16 07:44:00,
2013-06-16 02:49:00,68.2,66.1,30.00,WSW,240,0.0,0.0,93,0.00,,SKC,0.00,VWS V13.01,2013-06-16 07:49:00,
2013-06-16 02:54:00,68.1,66.0,30.00,SW,235,0.0,0.0,93,0.00,,SKC,0.00,VWS V13.01,2013-06-16 07:54:00,
2013-06-16 02:59:00,68.1,66.0,30.00,SSW,213,0.0,0.0,93,0.00,,SKC,0.00,VWS V13.01,2013-06-16 07:59:00,
2013-06-16 03:04:00,68.1,66.0,30.00,SSW,213,0.0,0.0,93,0.00,,SKC,0.00,VWS V13.01,2013-06-16 08:04:00,
2013-06-16 03:09:00,68.1,66.0,29.99,SSW,213,0.0,0.0,93,0.00,,SKC,0.00,VWS V13.01,2013-06-16 08:09:00,
2013-06-16 03:14:00,68.1,66.0,30.00,WSW,258,0.0,4.0,93,0.00,,SKC,0.00,VWS V13.01,2013-06-16 08:14:00,
2013-06-16 03:19:00,68.0,65.9,30.00,WSW,258,0.0,0.0,93,0.00,,SKC,0.00,VWS V13.01,2013-06-16 08:19:00,
2013-06-16 03:24:00,67.9,65.8,29.99,West,262,0.0,0.0,93,0.00,,SKC,0.00,VWS V13.01,2013-06-16 08:24:00,
2013-06-16 03:29:00,67.9,65.8,30.00,West,262,0.0,0.0,93,0.00,,SKC,0.00,VWS V13.01,2013-06-16 08:29:00,
2013-06-16 03:34:00,67.9,65.8,30.00,West,262,0.0,0.0,93,0.00,,SKC,0.00,VWS V13.01,2013-06-16 08:34:00,
2013-06-16 03:39:00,67.9,66.1,29.99,West,262,0.0,0.0,94,0.00,,SKC,0.00,VWS V13.01,2013-06-16 08:39:00,
2013-06-16 03:44:00,67.8,65.7,29.99,West,262,0.0,0.0,93,0.00,,SKC,0.00,VWS V13.01,2013-06-16 08:44:00,
2013-06-16 03:49:00,67.7,65.9,29.99,West,262,0.0,0.0,94,0.00,,SKC,0.00,VWS V13.01,2013-06-16 08:49:00,
2013-06-16 03:54:00,67.7,65.9,29.99,West,262,0.0,0.0,94,0.00,,SKC,0.00,VWS V13.01,2013-06-16 08:54:00,
2013-06-16 03:59:00,67.7,65.9,29.99,West,262,0.0,0.0,94,0.00,,SKC,0.00,VWS V13.01,2013-06-16 08:59:00,
2013-06-16 04:04:00,67.7,65.9,29.98,West,262,0.0,0.0,94,0.00,,SKC,0.00,VWS V13.01,2013-06-16 09:04:00,
2013-06-16 04:09:00,67.7,65.9,29.98,West,262,0.0,0.0,94,0.00,,SKC,0.00,VWS V13.01,2013-06-16 09:09:00,
2013-06-16 04:14:00,67.6,65.8,29.98,West,262,0.0,0.0,94,0.00,,SKC,0.00,VWS V13.01,2013-06-16 09:14:00,
2013-06-16 04:19:00,67.6,65.8,29.99,West,262,0.0,0.0,94,0.00,,SKC,0.00,VWS V13.01,2013-06-16 09:19:00,
2013-06-16 04:24:00,67.6,65.8,29.98,West,262,0.0,0.0,94,0.00,,SKC,0.00,VWS V13.01,2013-06-16 09:24:00,
2013-06-16 04:29:00,67.6,65.8,29.98,West,262,0.0,0.0,94,0.00,,SKC,0.00,VWS V13.01,2013-06-16 09:29:00,
2013-06-16 04:34:00,67.6,65.8,29.99,West,262,0.0,0.0,94,0.00,,SKC,0.00,VWS V13.01,2013-06-16 09:34:00,
2013-06-16 04:39:00,67.7,65.9,29.99,West,262,0.0,0.0,94,0.00,,SKC,0.00,VWS V13.01,2013-06-16 09:39:00,
2013-06-16 04:44:00,67.7,65.9,29.99,West,262,0.0,0.0,94,0.00,,SKC,0.00,VWS V13.01,2013-06-16 09:44:00,
2013-06-16 04:49:00,67.6,65.8,29.99,West,262,0.0,0.0,94,0.00,,SKC,0.00,VWS V13.01,2013-06-16 09:49:00,
2013-06-16 04:54:00,67.6,65.8,29.99,West,262,0.0,0.0,94,0.00,,SKC,0.00,VWS V13.01,2013-06-16 09:54:00,
2013-06-16 04:59:00,67.5,65.7,29.99,West,262,0.0,0.0,94,0.00,,SKC,0.00,VWS V13.01,2013-06-16 09:59:00,
2013-06-16 05:04:00,67.5,65.7,30.00,West,262,0.0,0.0,94,0.00,,SKC,0.00,VWS V13.01,2013-06-16 10:04:00,
2013-06-16 05:09:00,67.5,65.7,30.00,West,262,0.0,0.0,94,0.00,,SKC,0.00,VWS V13.01,2013-06-16 10:09:00,
2013-06-16 05:14:00,67.5,65.7,30.00,West,262,0.0,0.0,94,0.00,,SKC,0.00,VWS V13.01,2013-06-16 10:14:00,
2013-06-16 05:19:00,67.5,65.7,30.00,West,262,0.0,0.0,94,0.00,,SKC,0.00,VWS V13.01,2013-06-16 10:19:00,
2013-06-16 05:24:00,67.5,65.7,29.99,West,262,0.0,0.0,94,0.00,,SKC,0.00,VWS V13.01,2013-06-16 10:24:00,
2013-06-16 05:29:00,67.5,65.7,30.00,West,262,0.0,0.0,94,0.00,,SKC,0.00,VWS V13.01,2013-06-16 10:29:00,
2013-06-16 05:34:00,67.5,65.7,30.00,West,262,0.0,0.0,94,0.00,,SKC,0.00,VWS V13.01,2013-06-16 10:34:00,
2013-06-16 05:39:00,67.4,65.6,29.99,West,262,0.0,0.0,94,0.00,,SKC,0.00,VWS V13.01,2013-06-16 10:39:00,
2013-06-16 05:44:00,67.5,65.7,30.00,West,262,0.0,0.0,94,0.00,,SKC,0.00,VWS V13.01,2013-06-16 10:44:00,
2013-06-16 05:49:00,67.5,65.7,29.99,West,262,0.0,0.0,94,0.00,,SKC,0.00,VWS V13.01,2013-06-16 10:49:00,
2013-06-16 05:54:00,67.5,65.7,30.00,West,263,0.0,0.0,94,0.00,,SKC,0.00,VWS V13.01,2013-06-16 10:54:00,
2013-06-16 05:59:00,67.5,65.7,30.00,West,263,0.0,0.0,94,0.00,,SKC,0.00,VWS V13.01,2013-06-16 10:59:00,
2013-06-16 06:04:00,67.5,65.7,29.99,West,263,0.0,0.0,94,0.00,,SKC,0.00,VWS V13.01,2013-06-16 11:04:00,
2013-06-16 06:09:00,67.5,65.7,29.99,West,263,0.0,0.0,94,0.00,,SKC,0.00,VWS V13.01,2013-06-16 11:09:00,
2013-06-16 06:14:00,67.5,65.7,29.99,West,263,0.0,0.0,94,0.00,,SKC,0.00,VWS V13.01,2013-06-16 11:14:00,
2013-06-16 06:19:00,67.6,65.8,29.99,West,263,0.0,0.0,94,0.00,,SKC,0.00,VWS V13.01,2013-06-16 11:19:00,
2013-06-16 06:24:00,67.6,65.8,29.99,West,263,0.0,0.0,94,0.00,,SKC,0.00,VWS V13.01,2013-06-16 11:24:00,
2013-06-16 06:29:00,67.6,65.8,29.99,West,263,0.0,0.0,94,0.00,,SKC,0.00,VWS V13.01,2013-06-16 11:29:00,
2013-06-16 06:34:00,67.6,65.8,29.99,West,263,0.0,0.0,94,0.00,,SKC,0.00,VWS V13.01,2013-06-16 11:34:00,
2013-06-16 06:39:00,67.7,65.9,30.00,West,263,0.0,0.0,94,0.00,,SKC,0.00,VWS V13.01,2013-06-16 11:39:00,
2013-06-16 06:44:00,67.8,66.0,30.00,West,263,0.0,0.0,94,0.00,,SKC,0.00,VWS V13.01,2013-06-16 11:44:00,
2013-06-16 06:49:00,67.8,66.0,30.00,West,263,0.0,0.0,94,0.00,,SKC,0.00,VWS V13.01,2013-06-16 11:49:00,
2013-06-16 06:54:00,67.9,66.1,30.00,West,263,0.0,0.0,94,0.00,,SKC,0.00,VWS V13.01,2013-06-16 11:54:00,
2013-06-16 06:59:00,67.9,66.1,30.00,West,273,0.0,0.0,94,0.00,,SKC,0.00,VWS V13.01,2013-06-16 11:59:00,
2013-06-16 07:04:00,67.9,66.1,30.00,West,273,0.0,0.0,94,0.00,,SKC,0.00,VWS V13.01,2013-06-16 12:04:00,
2013-06-16 07:09:00,68.0,66.2,30.01,West,273,0.0,0.0,94,0.00,,SKC,0.00,VWS V13.01,2013-06-16 12:09:00,
2013-06-16 07:14:00,68.1,66.6,30.01,West,273,0.0,0.0,95,0.00,,SKC,0.00,VWS V13.01,2013-06-16 12:14:00,
2013-06-16 07:19:00,68.2,66.7,30.01,West,273,0.0,0.0,95,0.00,,SKC,0.00,VWS V13.01,2013-06-16 12:19:00,
2013-06-16 07:24:00,68.3,66.8,30.01,West,273,0.0,0.0,95,0.00,,SKC,0.00,VWS V13.01,2013-06-16 12:24:00,
2013-06-16 07:29:00,68.4,66.6,30.01,WNW,297,0.0,0.0,94,0.00,,SKC,0.00,VWS V13.01,2013-06-16 12:29:00,
2013-06-16 07:34:00,68.5,66.7,30.01,WNW,297,0.0,0.0,94,0.00,,SKC,0.00,VWS V13.01,2013-06-16 12:34:00,
2013-06-16 07:39:00,68.6,66.8,30.01,NW,310,1.0,7.0,94,0.00,,SKC,0.00,VWS V13.01,2013-06-16 12:39:00,
2013-06-16 07:44:00,68.8,67.0,30.02,North,351,0.0,0.0,94,0.00,,SKC,0.00,VWS V13.01,2013-06-16 12:44:00,
2013-06-16 07:49:00,69.1,67.3,30.02,North,353,0.0,1.0,94,0.00,,SKC,0.00,VWS V13.01,2013-06-16 12:49:00,
2013-06-16 07:54:00,69.3,67.5,30.02,North,3,0.0,6.0,94,0.00,,SKC,0.00,VWS V13.01,2013-06-16 12:54:00,
2013-06-16 07:59:00,69.4,67.6,30.02,North,358,0.0,0.0,94,0.00,,SKC,0.00,VWS V13.01,2013-06-16 12:59:00,
2013-06-16 08:04:00,69.7,67.6,30.02,North,358,0.0,0.0,93,0.00,,SKC,0.00,VWS V13.01,2013-06-16 13:04:00,
2013-06-16 08:09:00,70.0,67.9,30.02,North,3,0.0,0.0,93,0.00,,SKC,0.00,VWS V13.01,2013-06-16 13:09:00,
2013-06-16 08:14:00,70.4,68.0,30.02,North,358,0.0,0.0,92,0.00,,SKC,0.00,VWS V13.01,2013-06-16 13:14:00,
2013-06-16 08:19:00,70.6,67.8,30.02,NNW,344,0.0,0.0,91,0.00,,SKC,0.00,VWS V13.01,2013-06-16 13:19:00,
2013-06-16 08:24:00,70.9,67.8,30.02,NNW,343,0.0,0.0,90,0.00,,SKC,0.00,VWS V13.01,2013-06-16 13:24:00,
2013-06-16 08:29:00,71.1,67.7,30.02,NW,324,0.0,0.0,89,0.00,,SKC,0.00,VWS V13.01,2013-06-16 13:29:00,
2013-06-16 08:34:00,71.2,67.5,30.02,NW,324,0.0,0.0,88,0.00,,SKC,0.00,VWS V13.01,2013-06-16 13:34:00,
2013-06-16 08:39:00,71.3,67.2,30.02,NW,324,0.0,0.0,87,0.00,,SKC,0.00,VWS V13.01,2013-06-16 13:39:00,
2013-06-16 08:44:00,71.9,68.2,30.02,NW,324,0.0,0.0,88,0.00,,SKC,0.00,VWS V13.01,2013-06-16 13:44:00,
2013-06-16 08:49:00,72.7,68.3,30.02,NNW,343,0.0,5.0,86,0.00,,SKC,0.00,VWS V13.01,2013-06-16 13:49:00,
2013-06-16 08:54:00,73.6,68.5,30.01,NNW,343,0.0,1.0,84,0.00,,SKC,0.00,VWS V13.01,2013-06-16 13:54:00,
2013-06-16 08:59:00,74.4,68.6,30.01,North,349,0.0,6.0,82,0.00,,SKC,0.00,VWS V13.01,2013-06-16 13:59:00,
2013-06-16 09:04:00,75.1,68.5,30.01,NE,35,0.0,0.0,80,0.00,,SKC,0.00,VWS V13.01,2013-06-16 14:04:00,
2013-06-16 09:09:00,75.8,68.8,30.01,NNE,31,0.0,0.0,79,0.00,,SKC,0.00,VWS V13.01,2013-06-16 14:09:00,
2013-06-16 09:14:00,76.4,68.7,30.01,NNE,28,1.0,3.0,77,0.00,,SKC,0.00,VWS V13.01,2013-06-16 14:14:00,
2013-06-16 09:19:00,77.2,69.1,30.01,NNE,27,0.0,0.0,76,0.00,,SKC,0.00,VWS V13.01,2013-06-16 14:19:00,
2013-06-16 09:24:00,77.8,69.2,30.01,NNE,27,0.0,0.0,75,0.00,,SKC,0.00,VWS V13.01,2013-06-16 14:24:00,
2013-06-16 09:29:00,78.1,69.1,30.01,ENE,57,1.0,1.0,74,0.00,,SKC,0.00,VWS V13.01,2013-06-16 14:29:00,
2013-06-16 09:34:00,78.3,68.9,30.01,NE,54,0.0,0.0,73,0.00,,SKC,0.00,VWS V13.01,2013-06-16 14:34:00,
2013-06-16 09:39:00,79.1,69.7,30.01,NE,49,0.0,0.0,73,0.00,,SKC,0.00,VWS V13.01,2013-06-16 14:39:00,
2013-06-16 09:44:00,79.9,69.7,30.01,NE,34,0.0,0.0,71,0.00,,SKC,0.00,VWS V13.01,2013-06-16 14:44:00,
2013-06-16 09:49:00,80.4,69.3,30.02,NE,38,1.0,4.0,69,0.00,,SKC,0.00,VWS V13.01,2013-06-16 14:49:00,
2013-06-16 09:54:00,80.9,69.4,30.02,NE,36,0.0,0.0,68,0.00,,SKC,0.00,VWS V13.01,2013-06-16 14:54:00,
2013-06-16 09:59:00,81.2,69.6,30.02,NNE,33,0.0,0.0,68,0.00,,SKC,0.00,VWS V13.01,2013-06-16 14:59:00,
2013-06-16 10:04:00,81.6,69.6,30.01,NNE,32,0.0,1.0,67,0.00,,SKC,0.00,VWS V13.01,2013-06-16 15:04:00,
2013-06-16 10:09:00,81.9,70.3,30.01,NNE,22,0.0,5.0,68,0.00,,SKC,0.00,VWS V13.01,2013-06-16 15:09:00,
2013-06-16 10:14:00,82.5,70.4,30.01,ENE,58,0.0,0.0,67,0.00,,SKC,0.00,VWS V13.01,2013-06-16 15:14:00,
2013-06-16 10:19:00,83.4,70.4,30.01,NNE,22,0.0,0.0,65,0.00,,SKC,0.00,VWS V13.01,2013-06-16 15:19:00,
2013-06-16 10:24:00,83.6,70.6,30.01,NNE,22,0.0,0.0,65,0.00,,SKC,0.00,VWS V13.01,2013-06-16 15:24:00,
2013-06-16 10:29:00,84.1,70.6,30.01,NNE,18,0.0,3.0,64,0.00,,SKC,0.00,VWS V13.01,2013-06-16 15:29:00,
2013-06-16 10:34:00,84.5,70.5,30.01,NNE,19,0.0,1.0,63,0.00,,SKC,0.00,VWS V13.01,2013-06-16 15:34:00,
2013-06-16 10:39:00,85.0,70.1,30.01,ENE,72,2.0,6.0,61,0.00,,SKC,0.00,VWS V13.01,2013-06-16 15:39:00,
2013-06-16 10:44:00,85.6,70.1,30.01,NE,37,0.0,5.0,60,0.00,,SKC,0.00,VWS V13.01,2013-06-16 15:44:00,
2013-06-16 10:49:00,85.8,70.3,30.01,NE,40,0.0,0.0,60,0.00,,SKC,0.00,VWS V13.01,2013-06-16 15:49:00,
2013-06-16 10:54:00,85.7,69.2,30.02,NE,52,4.0,7.0,58,0.00,,SKC,0.00,VWS V13.01,2013-06-16 15:54:00,
2013-06-16 10:59:00,86.3,70.3,30.02,NE,37,0.0,2.0,59,0.00,,SKC,0.00,VWS V13.01,2013-06-16 15:59:00,
2013-06-16 11:04:00,87.2,71.1,30.02,ENE,64,4.0,5.0,59,0.00,,SKC,0.00,VWS V13.01,2013-06-16 16:04:00,
2013-06-16 11:09:00,86.8,70.3,30.02,NNE,31,0.0,5.0,58,0.00,,SKC,0.00,VWS V13.01,2013-06-16 16:09:00,
2013-06-16 11:14:00,86.4,69.9,30.02,NE,45,2.0,7.0,58,0.00,,SKC,0.00,VWS V13.01,2013-06-16 16:14:00,
2013-06-16 11:19:00,86.3,69.8,30.02,ENE,66,0.0,0.0,58,0.00,,SKC,0.00,VWS V13.01,2013-06-16 16:19:00,
2013-06-16 11:24:00,86.4,69.4,30.02,NNE,27,0.0,7.0,57,0.00,,SKC,0.00,VWS V13.01,2013-06-16 16:24:00,
2013-06-16 11:29:00,86.7,69.7,30.02,NE,35,6.0,8.0,57,0.00,,SKC,0.00,VWS V13.01,2013-06-16 16:29:00,
2013-06-16 11:34:00,86.3,68.2,30.03,ENE,72,6.0,10.0,55,0.00,,SKC,0.00,VWS V13.01,2013-06-16 16:34:00,
2013-06-16 11:39:00,86.7,69.7,30.02,NNE,31,4.0,7.0,57,0.00,,SKC,0.00,VWS V13.01,2013-06-16 16:39:00,
2013-06-16 11:44:00,87.0,69.9,30.02,NE,40,0.0,0.0,57,0.00,,SKC,0.00,VWS V13.01,2013-06-16 16:44:00,
2013-06-16 11:49:00,87.7,70.1,30.03,NE,49,4.0,10.0,56,0.00,,SKC,0.00,VWS V13.01,2013-06-16 16:49:00,
2013-06-16 11:54:00,87.9,69.7,30.02,ENE,66,0.0,5.0,55,0.00,,SKC,0.00,VWS V13.01,2013-06-16 16:54:00,
2013-06-16 11:59:00,87.4,69.8,30.03,NNE,32,3.0,6.0,56,0.00,,SKC,0.00,VWS V13.01,2013-06-16 16:59:00,
2013-06-16 12:04:00,88.0,68.7,30.03,NE,44,0.0,0.0,53,0.00,,SKC,0.00,VWS V13.01,2013-06-16 17:04:00,
2013-06-16 12:09:00,88.2,70.5,30.03,NE,45,0.0,0.0,56,0.00,,SKC,0.00,VWS V13.01,2013-06-16 17:09:00,
2013-06-16 12:14:00,89.8,70.9,30.03,ENE,68,0.0,4.0,54,0.00,,SKC,0.00,VWS V13.01,2013-06-16 17:14:00,
2013-06-16 12:19:00,90.2,70.2,30.03,NNE,20,4.0,4.0,52,0.00,,SKC,0.00,VWS V13.01,2013-06-16 17:19:00,
2013-06-16 12:24:00,90.2,69.1,30.02,East,89,0.0,3.0,50,0.00,,SKC,0.00,VWS V13.01,2013-06-16 17:24:00,
2013-06-16 12:29:00,91.1,68.7,30.03,ENE,77,7.0,10.0,48,0.00,,SKC,0.00,VWS V13.01,2013-06-16 17:29:00,
2013-06-16 12:34:00,91.7,70.4,30.03,ENE,64,0.0,1.0,50,0.00,,SKC,0.00,VWS V13.01,2013-06-16 17:34:00,
2013-06-16 12:39:00,92.5,68.7,30.03,ENE,78,0.0,3.0,46,0.00,,SKC,0.00,VWS V13.01,2013-06-16 17:39:00,
2013-06-16 12:44:00,93.4,69.5,30.03,East,81,0.0,3.0,46,0.00,,SKC,0.00,VWS V13.01,2013-06-16 17:44:00,
2013-06-16 12:49:00,93.4,68.2,30.02,NE,41,0.0,0.0,44,0.00,,SKC,0.00,VWS V13.01,2013-06-16 17:49:00,
2013-06-16 12:54:00,93.2,68.1,30.02,East,101,0.0,0.0,44,0.00,,SKC,0.00,VWS V13.01,2013-06-16 17:54:00,
2013-06-16 12:59:00,90.6,68.2,30.02,East,101,0.0,0.0,48,0.00,,SKC,0.00,VWS V13.01,2013-06-16 17:59:00,
2013-06-16 13:04:00,91.5,70.2,30.02,South,187,0.0,0.0,50,0.00,,SKC,0.00,VWS V13.01,2013-06-16 18:04:00,
2013-06-16 13:09:00,89.0,68.5,30.02,SSW,194,0.0,0.0,51,0.00,,SKC,0.00,VWS V13.01,2013-06-16 18:09:00,
2013-06-16 13:14:00,89.5,68.4,30.02,East,80,0.0,0.0,50,0.00,,SKC,0.00,VWS V13.01,2013-06-16 18:14:00,
2013-06-16 13:19:00,90.2,69.1,30.02,ENE,74,0.0,0.0,50,0.00,,SKC,0.00,VWS V13.01,2013-06-16 18:19:00,
2013-06-16 13:24:00,90.4,67.4,30.02,ENE,75,0.0,0.0,47,0.00,,SKC,0.00,VWS V13.01,2013-06-16 18:24:00,
2013-06-16 13:29:00,91.9,68.2,30.02,ENE,74,0.0,0.0,46,0.00,,SKC,0.00,VWS V13.01,2013-06-16 18:29:00,
2013-06-16 13:34:00,92.5,69.3,30.02,ENE,74,0.0,0.0,47,0.00,,SKC,0.00,VWS V13.01,2013-06-16 18:34:00,
2013-06-16 13:39:00,92.7,67.6,30.02,ENE,74,0.0,0.0,44,0.00,,SKC,0.00,VWS V13.01,2013-06-16 18:39:00,
2013-06-16 13:44:00,92.5,69.3,30.01,ENE,74,0.0,0.0,47,0.00,,SKC,0.00,VWS V13.01,2013-06-16 18:44:00,
2013-06-16 13:49:00,92.5,68.1,30.01,East,85,2.0,5.0,45,0.00,,SKC,0.00,VWS V13.01,2013-06-16 18:49:00,
2013-06-16 13:54:00,92.8,68.4,30.01,East,85,0.0,1.0,45,0.00,,SKC,0.00,VWS V13.01,2013-06-16 18:54:00,
2013-06-16 13:59:00,92.0,68.3,30.01,ESE,118,0.0,5.0,46,0.00,,SKC,0.00,VWS V13.01,2013-06-16 18:59:00,
2013-06-16 14:04:00,92.6,70.7,30.01,ESE,118,0.0,0.0,49,0.00,,SKC,0.00,VWS V13.01,2013-06-16 19:04:00,
2013-06-16 14:09:00,90.6,67.0,30.01,SSW,194,0.0,0.0,46,0.00,,SKC,0.00,VWS V13.01,2013-06-16 19:09:00,
2013-06-16 14:14:00,92.0,67.6,30.01,NNE,30,1.0,1.0,45,0.00,,SKC,0.00,VWS V13.01,2013-06-16 19:14:00,
2013-06-16 14:19:00,94.6,68.7,30.01,NE,40,0.0,3.0,43,0.00,,SKC,0.00,VWS V13.01,2013-06-16 19:19:00,
2013-06-16 14:24:00,96.0,66.3,30.02,NNE,29,0.0,3.0,38,0.00,,SKC,0.00,VWS V13.01,2013-06-16 19:24:00,
2013-06-16 14:29:00,96.4,68.2,30.01,North,349,0.0,1.0,40,0.00,,SKC,0.00,VWS V13.01,2013-06-16 19:29:00,
2013-06-16 14:34:00,95.4,66.5,30.01,NW,319,0.0,0.0,39,0.00,,SKC,0.00,VWS V13.01,2013-06-16 19:34:00,
2013-06-16 14:39:00,95.7,68.2,30.01,East,93,8.0,8.0,41,0.00,,SKC,0.00,VWS V13.01,2013-06-16 19:39:00,
2013-06-16 14:44:00,94.0,69.4,30.01,NE,54,5.0,6.0,45,0.00,,SKC,0.00,VWS V13.01,2013-06-16 19:44:00,
2013-06-16 14:49:00,95.5,68.8,30.00,NE,52,0.0,0.0,42,0.00,,SKC,0.00,VWS V13.01,2013-06-16 19:49:00,
2013-06-16 14:54:00,95.3,68.6,30.00,ENE,77,0.0,3.0,42,0.00,,SKC,0.00,VWS V13.01,2013-06-16 19:54:00,
2013-06-16 14:59:00,95.8,68.3,30.00,NE,49,2.0,3.0,41,0.00,,SKC,0.00,VWS V13.01,2013-06-16 19:59:00,
2013-06-16 15:04:00,95.8,66.9,30.00,NE,43,0.0,3.0,39,0.00,,SKC,0.00,VWS V13.01,2013-06-16 20:04:00,
2013-06-16 15:09:00,97.1,68.8,30.00,East,81,2.0,4.0,40,0.00,,SKC,0.00,VWS V13.01,2013-06-16 20:09:00,
2013-06-16 15:14:00,98.0,69.6,29.99,ENE,68,0.0,1.0,40,0.00,,SKC,0.00,VWS V13.01,2013-06-16 20:14:00,
2013-06-16 15:19:00,97.8,67.1,29.99,NNE,27,0.0,0.0,37,0.00,,SKC,0.00,VWS V13.01,2013-06-16 20:19:00,
2013-06-16 15:24:00,97.3,66.7,29.99,East,95,0.0,5.0,37,0.00,,SKC,0.00,VWS V13.01,2013-06-16 20:24:00,
2013-06-16 15:29:00,96.3,65.0,29.98,East,94,5.0,15.0,36,0.00,,SKC,0.00,VWS V13.01,2013-06-16 20:29:00,
2013-06-16 15:34:00,95.9,65.5,29.99,ENE,75,7.0,8.0,37,0.00,,SKC,0.00,VWS V13.01,2013-06-16 20:34:00,
2013-06-16 15:39:00,95.7,66.1,29.99,East,82,10.0,11.0,38,0.00,,SKC,0.00,VWS V13.01,2013-06-16 20:39:00,
2013-06-16 15:44:00,95.6,62.8,29.99,NE,42,2.0,7.0,34,0.00,,SKC,0.00,VWS V13.01,2013-06-16 20:44:00,
2013-06-16 15:49:00,95.8,64.6,30.00,NE,44,0.0,1.0,36,0.00,,SKC,0.00,VWS V13.01,2013-06-16 20:49:00,
2013-06-16 15:54:00,96.8,63.8,30.00,NNE,28,3.0,5.0,34,0.00,,SKC,0.00,VWS V13.01,2013-06-16 20:54:00,
2013-06-16 15:59:00,97.8,63.8,30.00,SE,135,7.0,7.0,33,0.00,,SKC,0.00,VWS V13.01,2013-06-16 20:59:00,
2013-06-16 16:04:00,99.3,63.4,30.00,ENE,64,0.0,0.0,31,0.00,,SKC,0.00,VWS V13.01,2013-06-16 21:04:00,
2013-06-16 16:09:00,99.6,63.6,30.00,East,93,1.0,8.0,31,0.00,,SKC,0.00,VWS V13.01,2013-06-16 21:09:00,
2013-06-16 16:14:00,98.8,63.8,30.00,NE,47,0.0,6.0,32,0.00,,SKC,0.00,VWS V13.01,2013-06-16 21:14:00,
2013-06-16 16:19:00,98.8,62.0,30.00,ENE,70,0.0,0.0,30,0.00,,SKC,0.00,VWS V13.01,2013-06-16 21:19:00,
2013-06-16 16:24:00,99.2,63.3,30.00,NNE,22,1.0,4.0,31,0.00,,SKC,0.00,VWS V13.01,2013-06-16 21:24:00,
2013-06-16 16:29:00,99.6,63.6,30.00,NE,54,1.0,4.0,31,0.00,,SKC,0.00,VWS V13.01,2013-06-16 21:29:00,
2013-06-16 16:34:00,99.6,61.7,30.01,NE,41,0.0,0.0,29,0.00,,SKC,0.00,VWS V13.01,2013-06-16 21:34:00,
2013-06-16 16:39:00,99.4,64.3,30.01,NE,35,0.0,7.0,32,0.00,,SKC,0.00,VWS V13.01,2013-06-16 21:39:00,
2013-06-16 16:44:00,99.3,66.0,30.01,NE,44,0.0,4.0,34,0.00,,SKC,0.00,VWS V13.01,2013-06-16 21:44:00,
2013-06-16 16:49:00,99.8,64.7,30.00,NE,53,3.0,3.0,32,0.00,,SKC,0.00,VWS V13.01,2013-06-16 21:49:00,
2013-06-16 16:54:00,99.5,63.5,30.00,NE,56,5.0,6.0,31,0.00,,SKC,0.00,VWS V13.01,2013-06-16 21:54:00,
2013-06-16 16:59:00,98.6,61.8,30.00,NE,41,1.0,1.0,30,0.00,,SKC,0.00,VWS V13.01,2013-06-16 21:59:00,
2013-06-16 17:04:00,98.8,62.9,30.00,East,96,5.0,6.0,31,0.00,,SKC,0.00,VWS V13.01,2013-06-16 22:04:00,
2013-06-16 17:09:00,98.3,64.3,30.00,NNE,15,0.0,4.0,33,0.00,,SKC,0.00,VWS V13.01,2013-06-16 22:09:00,
2013-06-16 17:14:00,99.1,65.8,30.00,NNE,30,4.0,4.0,34,0.00,,SKC,0.00,VWS V13.01,2013-06-16 22:14:00,
2013-06-16 17:19:00,99.2,63.3,30.00,NE,36,0.0,0.0,31,0.00,,SKC,0.00,VWS V13.01,2013-06-16 22:19:00,
2013-06-16 17:24:00,98.7,63.8,30.00,NE,37,0.0,0.0,32,0.00,,SKC,0.00,VWS V13.01,2013-06-16 22:24:00,
2013-06-16 17:29:00,98.1,63.2,29.99,NE,50,6.0,6.0,32,0.00,,SKC,0.00,VWS V13.01,2013-06-16 22:29:00,
2013-06-16 17:34:00,97.3,63.4,29.99,East,79,0.0,6.0,33,0.00,,SKC,0.00,VWS V13.01,2013-06-16 22:34:00,
2013-06-16 17:39:00,97.5,66.1,29.99,NNE,33,0.0,2.0,36,0.00,,SKC,0.00,VWS V13.01,2013-06-16 22:39:00,
2013-06-16 17:44:00,97.3,62.5,29.98,NNE,31,5.0,7.0,32,0.00,,SKC,0.00,VWS V13.01,2013-06-16 22:44:00,
2013-06-16 17:49:00,97.0,62.3,29.98,NNE,23,0.0,0.0,32,0.00,,SKC,0.00,VWS V13.01,2013-06-16 22:49:00,
2013-06-16 17:54:00,97.4,62.6,29.98,ENE,61,3.0,8.0,32,0.00,,SKC,0.00,VWS V13.01,2013-06-16 22:54:00,
2013-06-16 17:59:00,97.2,62.5,29.98,ENE,67,2.0,5.0,32,0.00,,SKC,0.00,VWS V13.01,2013-06-16 22:59:00,
2013-06-16 18:04:00,95.9,63.0,29.98,NE,54,0.0,3.0,34,0.00,,SKC,0.00,VWS V13.01,2013-06-16 23:04:00,
2013-06-16 18:09:00,96.1,64.8,29.98,NE,51,0.0,3.0,36,0.00,,SKC,0.00,VWS V13.01,2013-06-16 23:09:00,
2013-06-16 18:14:00,96.4,63.5,29.98,NE,53,3.0,3.0,34,0.00,,SKC,0.00,VWS V13.01,2013-06-16 23:14:00,
2013-06-16 18:19:00,96.6,64.5,29.98,NE,43,0.0,0.0,35,0.00,,SKC,0.00,VWS V13.01,2013-06-16 23:19:00,
2013-06-16 18:24:00,96.7,63.7,29.98,East,87,4.0,7.0,34,0.00,,SKC,0.00,VWS V13.01,2013-06-16 23:24:00,
2013-06-16 18:29:00,93.8,60.4,29.98,East,79,0.0,7.0,33,0.00,,SKC,0.00,VWS V13.01,2013-06-16 23:29:00,
2013-06-16 18:34:00,91.7,61.8,29.99,NE,54,0.0,5.0,37,0.00,,SKC,0.00,VWS V13.01,2013-06-16 23:34:00,
2013-06-16 18:39:00,91.6,60.1,29.99,NE,53,0.0,0.0,35,0.00,,SKC,0.00,VWS V13.01,2013-06-16 23:39:00,
2013-06-16 18:44:00,92.2,63.7,29.99,NE,52,0.0,2.0,39,0.00,,SKC,0.00,VWS V13.01,2013-06-16 23:44:00,
2013-06-16 18:49:00,92.8,62.7,29.99,NE,53,0.0,0.0,37,0.00,,SKC,0.00,VWS V13.01,2013-06-16 23:49:00,
2013-06-16 18:54:00,93.1,61.4,29.99,NE,38,0.0,5.0,35,0.00,,SKC,0.00,VWS V13.01,2013-06-16 23:54:00,
2013-06-16 18:59:00,92.8,62.0,30.00,NE,48,0.0,0.0,36,0.00,,SKC,0.00,VWS V13.01,2013-06-16 23:59:00,
2013-06-16 19:04:00,92.3,60.7,30.00,NE,46,0.0,0.0,35,0.00,,SKC,0.00,VWS V13.01,2013-06-17 00:04:00,
2013-06-16 19:09:00,91.5,60.8,30.00,NE,38,0.0,0.0,36,0.00,,SKC,0.00,VWS V13.01,2013-06-17 00:09:00,
2013-06-16 19:14:00,91.2,61.3,30.00,NE,37,0.0,0.0,37,0.00,,SKC,0.00,VWS V13.01,2013-06-17 00:14:00,
2013-06-16 19:19:00,90.8,61.0,30.00,NE,37,0.0,0.0,37,0.00,,SKC,0.00,VWS V13.01,2013-06-17 00:19:00,
2013-06-16 19:24:00,90.3,62.0,30.00,NE,37,0.0,0.0,39,0.00,,SKC,0.00,VWS V13.01,2013-06-17 00:24:00,
2013-06-16 19:29:00,89.7,62.2,29.99,NE,37,0.0,0.0,40,0.00,,SKC,0.00,VWS V13.01,2013-06-17 00:29:00,
2013-06-16 19:34:00,89.1,60.2,30.00,NE,37,0.0,0.0,38,0.00,,SKC,0.00,VWS V13.01,2013-06-17 00:34:00,
2013-06-16 19:39:00,88.6,60.5,30.00,NE,37,0.0,0.0,39,0.00,,SKC,0.00,VWS V13.01,2013-06-17 00:39:00,
2013-06-16 19:44:00,88.3,60.2,30.00,NE,37,0.0,0.0,39,0.00,,SKC,0.00,VWS V13.01,2013-06-17 00:44:00,
2013-06-16 19:49:00,87.9,60.6,30.01,NE,37,0.0,0.0,40,0.00,,SKC,0.00,VWS V13.01,2013-06-17 00:49:00,
2013-06-16 19:54:00,87.4,59.4,30.01,NE,37,0.0,0.0,39,0.00,,SKC,0.00,VWS V13.01,2013-06-17 00:54:00,
2013-06-16 19:59:00,86.8,59.6,30.01,NNE,18,0.0,0.0,40,0.00,,SKC,0.00,VWS V13.01,2013-06-17 00:59:00,
2013-06-16 20:04:00,86.1,59.0,30.02,NNW,347,4.0,5.0,40,0.00,,SKC,0.00,VWS V13.01,2013-06-17 01:04:00,
2013-06-16 20:09:00,85.4,59.0,30.01,NNW,332,0.0,0.0,41,0.00,,SKC,0.00,VWS V13.01,2013-06-17 01:09:00,
2013-06-16 20:14:00,84.6,59.0,30.01,North,8,0.0,0.0,42,0.00,,SKC,0.00,VWS V13.01,2013-06-17 01:14:00,
2013-06-16 20:19:00,84.0,58.5,30.01,NNE,33,0.0,6.0,42,0.00,,SKC,0.00,VWS V13.01,2013-06-17 01:19:00,
2013-06-16 20:24:00,83.5,58.7,30.01,NNE,16,0.0,0.0,43,0.00,,SKC,0.00,VWS V13.01,2013-06-17 01:24:00,
2013-06-16 20:29:00,83.1,59.0,29.99,NNE,16,0.0,0.0,44,0.00,,SKC,0.00,VWS V13.01,2013-06-17 01:29:00,
2013-06-16 20:34:00,82.5,59.0,29.99,SSE,147,0.0,0.0,45,0.00,,SKC,0.00,VWS V13.01,2013-06-17 01:34:00,
2013-06-16 20:39:00,82.3,59.5,29.99,SSE,147,0.0,0.0,46,0.00,,SKC,0.00,VWS V13.01,2013-06-17 01:39:00,
2013-06-16 20:44:00,81.8,59.0,29.98,SSW,197,0.0,0.0,46,0.00,,SKC,0.00,VWS V13.01,2013-06-17 01:44:00,
2013-06-16 20:49:00,81.3,59.2,29.98,SSW,205,0.0,0.0,47,0.00,,SKC,0.00,VWS V13.01,2013-06-17 01:49:00,
2013-06-16 20:54:00,80.6,59.1,29.99,SW,217,0.0,0.0,48,0.00,,SKC,0.00,VWS V13.01,2013-06-17 01:54:00,
2013-06-16 20:59:00,80.3,58.8,29.99,SW,217,0.0,0.0,48,0.00,,SKC,0.00,VWS V13.01,2013-06-17 01:59:00,
2013-06-16 21:04:00,80.1,59.2,29.99,SW,217,0.0,0.0,49,0.00,,SKC,0.00,VWS V13.01,2013-06-17 02:04:00,
2013-06-16 21:09:00,79.9,59.6,29.99,SW,217,0.0,0.0,50,0.00,,SKC,0.00,VWS V13.01,2013-06-17 02:09:00,
2013-06-16 21:14:00,79.8,59.5,29.98,SW,217,0.0,0.0,50,0.00,,SKC,0.00,VWS V13.01,2013-06-17 02:14:00,
2013-06-16 21:19:00,79.7,59.4,29.99,SW,217,0.0,0.0,50,0.00,,SKC,0.00,VWS V13.01,2013-06-17 02:19:00,
2013-06-16 21:24:00,79.6,59.3,29.99,SW,217,0.0,0.0,50,0.00,,SKC,0.00,VWS V13.01,2013-06-17 02:24:00,
2013-06-16 21:29:00,79.3,59.6,29.99,SW,217,0.0,0.0,51,0.00,,SKC,0.00,VWS V13.01,2013-06-17 02:29:00,
2013-06-16 21:34:00,79.1,60.0,29.99,SW,217,0.0,0.0,52,0.00,,SKC,0.00,VWS V13.01,2013-06-17 02:34:00,
2013-06-16 21:39:00,79.0,60.4,29.99,SW,217,0.0,0.0,53,0.00,,SKC,0.00,VWS V13.01,2013-06-17 02:39:00,
2013-06-16 21:44:00,78.8,60.8,30.00,SW,217,0.0,0.0,54,0.00,,SKC,0.00,VWS V13.01,2013-06-17 02:44:00,
2013-06-16 21:49:00,78.6,60.6,30.00,SW,217,0.0,0.0,54,0.01,,SKC,0.01,VWS V13.01,2013-06-17 02:49:00,
2013-06-16 21:54:00,78.3,60.8,30.00,SW,217,0.0,0.0,55,0.01,,SKC,0.01,VWS V13.01,2013-06-17 02:54:00,
2013-06-16 21:59:00,78.0,61.0,30.01,SW,217,0.0,0.0,56,0.01,,SKC,0.01,VWS V13.01,2013-06-17 02:59:00,
2013-06-16 22:04:00,77.8,60.9,30.00,SW,217,0.0,0.0,56,0.01,,SKC,0.01,VWS V13.01,2013-06-17 03:04:00,
2013-06-16 22:09:00,77.5,61.1,30.00,SW,217,0.0,0.0,57,0.01,,SKC,0.01,VWS V13.01,2013-06-17 03:09:00,
2013-06-16 22:14:00,77.2,60.8,30.01,SW,217,0.0,0.0,57,0.01,,SKC,0.01,VWS V13.01,2013-06-17 03:14:00,
2013-06-16 22:19:00,77.0,61.1,30.01,SW,217,0.0,0.0,58,0.01,,SKC,0.01,VWS V13.01,2013-06-17 03:19:00,
2013-06-16 22:24:00,76.8,61.4,30.02,SW,217,0.0,0.0,59,0.01,,SKC,0.01,VWS V13.01,2013-06-17 03:24:00,
2013-06-16 22:29:00,76.6,61.2,30.02,SW,217,0.0,0.0,59,0.01,,SKC,0.01,VWS V13.01,2013-06-17 03:29:00,
2013-06-16 22:34:00,76.4,61.5,30.01,SW,217,0.0,0.0,60,0.01,,SKC,0.01,VWS V13.01,2013-06-17 03:34:00,
2013-06-16 22:39:00,76.2,61.3,30.01,SW,217,0.0,0.0,60,0.01,,SKC,0.01,VWS V13.01,2013-06-17 03:39:00,
2013-06-16 22:44:00,76.0,61.1,30.00,SW,217,0.0,0.0,60,0.01,,SKC,0.01,VWS V13.01,2013-06-17 03:44:00,
2013-06-16 22:49:00,75.9,61.0,30.00,SW,217,0.0,0.0,60,0.00,,SKC,0.01,VWS V13.01,2013-06-17 03:49:00,
2013-06-16 22:54:00,75.7,61.3,30.00,SW,217,0.0,0.0,61,0.00,,SKC,0.01,VWS V13.01,2013-06-17 03:54:00,
2013-06-16 22:59:00,75.6,61.7,30.00,SW,217,0.0,0.0,62,0.00,,SKC,0.01,VWS V13.01,2013-06-17 03:59:00,
2013-06-16 23:01:00,75.6,61.7,30.00,SW,217,0.0,0.0,62,0.00,,SKC,0.01,VWS V13.01,2013-06-17 04:01:00,
2013-06-16 23:02:00,75.5,62.0,30.00,SW,217,0.0,0.0,63,0.00,,SKC,0.01,VWS V13.01,2013-06-17 04:02:00,
2013-06-16 23:03:00,75.5,62.0,30.00,SW,217,0.0,0.0,63,0.00,,SKC,0.01,VWS V13.01,2013-06-17 04:03:00,
2013-06-16 23:05:00,75.4,62.4,30.00,SW,217,0.0,0.0,64,0.00,,SKC,0.01,VWS V13.01,2013-06-17 04:05:00,
2013-06-16 23:06:00,75.3,62.3,29.99,SW,217,0.0,0.0,64,0.00,,SKC,0.01,VWS V13.01,2013-06-17 04:06:00,
2013-06-16 23:11:00,75.1,61.2,29.99,SW,217,0.0,0.0,62,0.00,,SKC,0.01,VWS V13.01,2013-06-17 04:11:00,
2013-06-16 23:16:00,74.9,61.5,29.99,SW,217,0.0,0.0,63,0.00,,SKC,0.01,VWS V13.01,2013-06-17 04:16:00,
2013-06-16 23:21:00,74.7,60.8,30.00,SW,217,0.0,0.0,62,0.00,,SKC,0.01,VWS V13.01,2013-06-17 04:21:00,
2013-06-16 23:26:00,74.5,60.6,29.99,SW,217,0.0,0.0,62,0.00,,SKC,0.01,VWS V13.01,2013-06-17 04:26:00,
2013-06-16 23:31:00,74.4,61.0,29.99,SW,217,0.0,0.0,63,0.00,,SKC,0.01,VWS V13.01,2013-06-17 04:31:00,
2013-06-16 23:36:00,74.3,61.3,29.99,SW,217,0.0,0.0,64,0.00,,SKC,0.01,VWS V13.01,2013-06-17 04:36:00,
2013-06-16 23:41:00,74.2,61.7,30.00,SW,217,0.0,0.0,65,0.00,,SKC,0.01,VWS V13.01,2013-06-17 04:41:00,
2013-06-16 23:46:00,74.0,61.5,30.00,SW,217,0.0,0.0,65,0.00,,SKC,0.01,VWS V13.01,2013-06-17 04:46:00,
2013-06-16 23:51:00,73.8,62.2,30.00,SW,217,0.0,0.0,67,0.00,,SKC,0.01,VWS V13.01,2013-06-17 04:51:00,
2013-06-16 23:56:00,73.5,61.9,30.00,SW,217,0.0,0.0,67,0.00,,SKC,0.01,VWS V13.01,2013-06-17 04:56:00,